createdAt,value
2019-04-21T00:00:54.205Z,101791.77
2019-04-21T00:03:33.390Z,101789.98
2019-04-21T00:06:15.580Z,101790.29
2019-04-21T00:08:48.409Z,101779.27
2019-04-21T00:11:29.850Z,101778.09
2019-04-21T00:13:52.591Z,101771.73
2019-04-21T00:16:17.171Z,101781.49
2019-04-21T00:19:07.190Z,101780.95
2019-04-21T00:21:40.405Z,101776.55
2019-04-21T00:24:28.918Z,101782.16
2019-04-21T00:27:07.015Z,101786.59
2019-04-21T00:29:56.261Z,101776.88
2019-04-21T00:32:10.419Z,101778.32
2019-04-21T00:34:28.173Z,101785.73
2019-04-21T00:37:12.135Z,101786.64
2019-04-21T00:40:01.834Z,101793.16
2019-04-21T00:42:22.846Z,101785.17
2019-04-21T00:45:00.520Z,101784.38
2019-04-21T00:47:34.067Z,101785.38
2019-04-21T00:50:05.219Z,101786.78
2019-04-21T00:55:34.147Z,101790.41
2019-04-21T00:58:03.821Z,101786.14
2019-04-21T01:00:32.477Z,101785.69
2019-04-21T01:03:12.827Z,101787.25
2019-04-21T01:05:48.353Z,101784.45
2019-04-21T01:08:14.246Z,101791.27
2019-04-21T01:10:38.108Z,101800.14
2019-04-21T01:13:27.834Z,101800.44
2019-04-21T01:16:00.797Z,101802.98
2019-04-21T01:18:31.431Z,101800.48
2019-04-21T01:20:41.168Z,101797.06
2019-04-21T01:23:12.845Z,101798.30
2019-04-21T01:25:55.447Z,101796.64
2019-04-21T01:28:34.030Z,101790.17
2019-04-21T01:31:08.813Z,101790.98
2019-04-21T01:33:44.963Z,101791.42
2019-04-21T01:36:14.582Z,101786.61
2019-04-21T01:38:58.983Z,101785.44
2019-04-21T01:41:25.516Z,101788.77
2019-04-21T01:43:56.985Z,101788.77
2019-04-21T01:46:30.911Z,101790.17
2019-04-21T01:49:03.318Z,101790.39
2019-04-21T01:51:57.942Z,101785.06
2019-04-21T01:54:23.783Z,101784.89
2019-04-21T01:57:03.372Z,101784.48
2019-04-21T01:59:38.028Z,101783.20
2019-04-21T02:02:19.350Z,101782.28
2019-04-21T02:04:57.576Z,101783.20
2019-04-21T02:07:24.892Z,101785.19
2019-04-21T02:09:59.351Z,101785.64
2019-04-21T02:12:27.902Z,101784.89
2019-04-21T02:15:04.562Z,101786.44
2019-04-21T02:17:36.768Z,101786.44
2019-04-21T02:20:02.735Z,101789.94
2019-04-21T02:22:59.144Z,101789.94
2019-04-21T02:25:16.583Z,101791.12
2019-04-21T02:27:54.845Z,101790.75
2019-04-21T02:30:36.974Z,101793.90
2019-04-21T02:33:12.857Z,101793.81
2019-04-21T02:38:23.842Z,101799.55
2019-04-21T02:40:47.333Z,101800.55
2019-04-21T02:43:22.898Z,101793.23
2019-04-21T02:45:55.959Z,101795.92
2019-04-21T02:50:50.040Z,101789.16
2019-04-21T02:58:51.190Z,101800.00
2019-04-21T03:01:25.991Z,101802.77
2019-04-21T03:03:52.753Z,101802.33
2019-04-21T03:06:59.946Z,101806.15
2019-04-21T03:09:18.573Z,101805.00
2019-04-21T03:11:57.942Z,101810.50
2019-04-21T03:16:47.229Z,101809.13
2019-04-21T03:19:37.956Z,101812.80
2019-04-21T03:22:07.138Z,101813.12
2019-04-21T03:25:00.886Z,101816.26
2019-04-21T03:27:18.676Z,101822.41
2019-04-21T03:29:47.747Z,101821.15
2019-04-21T03:35:26.201Z,101823.52
2019-04-21T03:37:25.167Z,101827.22
2019-04-21T03:40:05.146Z,101816.11
2019-04-21T03:45:06.718Z,101823.28
2019-04-21T03:50:29.702Z,101821.35
2019-04-21T03:52:48.186Z,101830.58
2019-04-21T04:00:59.513Z,101830.16
2019-04-21T04:06:20.833Z,101828.80
2019-04-21T04:08:57.801Z,101830.41
2019-04-21T04:14:09.761Z,101826.27
2019-04-21T04:24:19.598Z,101827.66
2019-04-21T04:26:49.017Z,101820.73
2019-04-21T04:29:19.857Z,101820.84
2019-04-21T04:34:27.612Z,101827.44
2019-04-21T04:37:05.908Z,101822.33
2019-04-21T04:50:15.447Z,101823.07
2019-04-21T04:55:06.784Z,101820.11
2019-04-21T04:57:57.746Z,101812.20
2019-04-21T05:02:48.840Z,101820.06
2019-04-21T05:05:26.764Z,101817.31
2019-04-21T05:07:58.006Z,101815.08
2019-04-21T05:10:44.822Z,101800.64
2019-04-21T05:12:56.980Z,101810.94
2019-04-21T05:15:42.116Z,101820.48
2019-04-21T05:18:05.395Z,101820.25
2019-04-21T05:20:50.648Z,101828.27
2019-04-21T05:23:06.333Z,101825.22
2019-04-21T05:25:37.869Z,101836.16
2019-04-21T05:28:09.066Z,101824.88
2019-04-21T05:30:58.414Z,101831.97
2019-04-21T05:33:33.224Z,101836.47
2019-04-21T05:36:23.907Z,101837.27
2019-04-21T05:38:59.557Z,101837.50
2019-04-21T05:41:29.140Z,101835.81
2019-04-21T05:44:12.811Z,101835.48
2019-04-21T05:46:49.572Z,101842.09
2019-04-21T05:49:20.590Z,101838.89
2019-04-21T05:51:58.344Z,101837.50
2019-04-21T05:54:44.088Z,101835.56
2019-04-21T05:57:10.160Z,101835.21
2019-04-21T05:59:43.616Z,101834.48
2019-04-21T06:02:22.397Z,101841.41
2019-04-21T06:05:05.868Z,101834.35
2019-04-21T06:07:30.232Z,101842.33
2019-04-21T06:09:59.587Z,101840.23
2019-04-21T06:12:38.261Z,101843.31
2019-04-21T06:15:12.293Z,101850.11
2019-04-21T06:17:44.569Z,101847.39
2019-04-21T06:20:13.678Z,101842.08
2019-04-21T06:22:54.800Z,101848.41
2019-04-21T06:27:57.468Z,101849.43
2019-04-21T06:30:32.136Z,101849.73
2019-04-21T06:33:00.290Z,101855.31
2019-04-21T06:36:21.446Z,101849.72
2019-04-21T06:38:56.952Z,101853.31
2019-04-21T06:41:21.377Z,101852.98
2019-04-21T06:43:59.936Z,101857.88
2019-04-21T06:46:33.447Z,101859.36
2019-04-21T06:51:32.296Z,101854.38
2019-04-21T06:54:09.502Z,101856.97
2019-04-21T06:56:46.461Z,101860.37
2019-04-21T06:59:09.629Z,101860.39
2019-04-21T07:01:51.457Z,101864.24
2019-04-21T07:06:57.491Z,101866.98
2019-04-21T07:09:48.390Z,101862.41
2019-04-21T07:11:59.852Z,101866.02
2019-04-21T07:14:38.461Z,101858.48
2019-04-21T07:17:16.228Z,101868.23
2019-04-21T07:22:17.751Z,101868.86
2019-04-21T07:24:54.018Z,101867.02
2019-04-21T07:27:23.974Z,101867.67
2019-04-21T07:32:29.045Z,101869.84
2019-04-21T07:35:03.928Z,101864.49
2019-04-21T07:37:35.518Z,101866.14
2019-04-21T07:40:05.588Z,101867.13
2019-04-21T07:42:38.057Z,101868.45
2019-04-21T07:45:13.006Z,101868.03
2019-04-21T07:47:50.787Z,101860.95
2019-04-21T07:50:47.489Z,101862.94
2019-04-21T07:53:28.761Z,101855.94
2019-04-21T07:55:37.359Z,101860.30
2019-04-21T07:58:36.390Z,101858.67
2019-04-21T08:01:07.416Z,101858.83
2019-04-21T08:03:33.639Z,101858.38
2019-04-21T08:06:32.009Z,101857.16
2019-04-21T08:08:42.187Z,101857.88
2019-04-21T08:11:09.600Z,101855.57
2019-04-21T08:13:48.797Z,101848.49
2019-04-21T08:16:25.396Z,101853.36
2019-04-21T08:18:52.431Z,101851.73
2019-04-21T08:21:30.841Z,101856.69
2019-04-21T08:23:55.688Z,101814.03
2019-04-21T08:26:36.991Z,101843.78
2019-04-21T08:29:14.490Z,101842.52
2019-04-21T08:31:50.029Z,101844.13
2019-04-21T08:34:14.015Z,101842.08
2019-04-21T08:36:44.899Z,101848.84
2019-04-21T08:39:24.112Z,101851.92
2019-04-21T08:41:55.949Z,101849.67
2019-04-21T08:44:33.358Z,101840.63
2019-04-21T08:47:09.645Z,101843.66
2019-04-21T08:49:35.087Z,101848.86
2019-04-21T08:52:20.979Z,101846.55
2019-04-21T08:54:47.096Z,101847.46
2019-04-21T08:57:37.695Z,101847.90
2019-04-21T09:02:47.496Z,101834.94
2019-04-21T09:05:20.651Z,101836.16
2019-04-21T09:07:57.489Z,101845.67
2019-04-21T09:10:33.421Z,101834.52
2019-04-21T09:12:58.916Z,101843.50
2019-04-21T09:15:33.753Z,101827.56
2019-04-21T09:18:05.373Z,101834.59
2019-04-21T09:20:47.362Z,101838.11
2019-04-21T09:23:18.101Z,101827.20
2019-04-21T09:25:46.232Z,101832.31
2019-04-21T09:28:18.309Z,101840.06
2019-04-21T09:30:43.393Z,101831.94
2019-04-21T09:33:09.261Z,101830.94
2019-04-21T09:35:50.070Z,101835.62
2019-04-21T09:38:27.580Z,101835.62
2019-04-21T09:40:54.389Z,101830.86
2019-04-21T09:43:35.480Z,101830.59
2019-04-21T09:45:58.892Z,101825.83
2019-04-21T09:48:45.650Z,101825.42
2019-04-21T09:51:06.579Z,101812.36
2019-04-21T09:53:42.222Z,101820.98
2019-04-21T09:56:17.849Z,101817.11
2019-04-21T09:58:49.548Z,101814.43
2019-04-21T10:01:28.250Z,101813.25
2019-04-21T10:03:57.220Z,101816.98
2019-04-21T10:06:26.298Z,101813.30
2019-04-21T10:09:04.024Z,101821.92
2019-04-21T10:11:31.143Z,101812.31
2019-04-21T10:14:03.309Z,101791.20
2019-04-21T10:16:36.486Z,101806.97
2019-04-21T10:19:08.862Z,101807.78
2019-04-21T10:21:40.395Z,101808.01
2019-04-21T10:24:12.505Z,101805.38
2019-04-21T10:26:45.146Z,101809.56
2019-04-21T10:29:23.721Z,101802.83
2019-04-21T10:31:50.527Z,101799.13
2019-04-21T10:34:23.105Z,101793.80
2019-04-21T10:37:00.744Z,101796.01
2019-04-21T10:39:33.662Z,101797.05
2019-04-21T10:42:05.672Z,101789.40
2019-04-21T10:44:37.311Z,101792.47
2019-04-21T10:47:08.849Z,101790.42
2019-04-21T10:49:40.369Z,101791.75
2019-04-21T10:52:13.327Z,101784.71
2019-04-21T10:55:07.288Z,101781.71
2019-04-21T10:57:22.178Z,101778.38
2019-04-21T10:59:55.919Z,101777.92
2019-04-21T11:02:34.884Z,101780.50
2019-04-21T11:05:09.082Z,101767.48
2019-04-21T11:08:05.123Z,101765.39
2019-04-21T11:10:25.784Z,101774.08
2019-04-21T11:12:58.618Z,101761.98
2019-04-21T11:15:31.366Z,101764.06
2019-04-21T11:18:04.015Z,101768.65
2019-04-21T11:20:35.467Z,101768.61
2019-04-21T11:23:08.364Z,101762.84
2019-04-21T11:25:41.966Z,101767.75
2019-04-21T11:28:14.316Z,101771.23
2019-04-21T11:30:46.702Z,101760.73
2019-04-21T11:33:21.304Z,101755.63
2019-04-21T11:35:53.283Z,101753.08
2019-04-21T11:38:55.818Z,101754.69
2019-04-21T11:41:09.886Z,101747.04
2019-04-21T11:43:43.231Z,101740.30
2019-04-21T11:46:16.147Z,101736.92
2019-04-21T11:48:48.343Z,101736.96
2019-04-21T11:51:19.511Z,101740.07
2019-04-21T11:53:50.906Z,101736.36
2019-04-21T11:56:25.117Z,101730.08
2019-04-21T11:58:57.788Z,101726.84
2019-04-21T12:01:29.813Z,101725.59
2019-04-21T12:04:01.649Z,101726.50
2019-04-21T12:06:40.916Z,101727.84
2019-04-21T12:09:09.959Z,101720.25
2019-04-21T12:11:41.547Z,101718.19
2019-04-21T12:14:14.228Z,101716.09
2019-04-21T12:16:46.901Z,101711.06
2019-04-21T12:19:22.625Z,101715.80
2019-04-21T12:22:05.098Z,101707.21
2019-04-21T12:24:31.227Z,101712.70
2019-04-21T12:27:02.433Z,101710.89
2019-04-21T12:29:33.838Z,101710.63
2019-04-21T12:32:16.009Z,101713.91
2019-04-21T12:34:50.505Z,101703.55
2019-04-21T12:37:20.535Z,101709.20
2019-04-21T12:39:52.911Z,101709.30
2019-04-21T12:42:24.902Z,101704.91
2019-04-21T12:44:57.314Z,101709.22
2019-04-21T12:47:30.015Z,101713.97
2019-04-21T12:50:02.731Z,101707.87
2019-04-21T12:52:35.725Z,101701.14
2019-04-21T12:55:09.802Z,101699.25
2019-04-21T12:57:43.538Z,101698.30
2019-04-21T13:00:18.527Z,101698.19
2019-04-21T13:02:49.908Z,101694.92
2019-04-21T13:05:22.660Z,101691.18
2019-04-21T13:07:55.502Z,101691.78
2019-04-21T13:10:26.883Z,101697.66
2019-04-21T13:12:59.728Z,101697.28
2019-04-21T13:15:31.698Z,101696.89
2019-04-21T13:18:02.915Z,101684.06
2019-04-21T13:20:35.888Z,101699.55
2019-04-21T13:23:08.570Z,101693.00
2019-04-21T13:25:41.784Z,101690.69
2019-04-21T13:28:14.689Z,101674.59
2019-04-21T13:30:48.730Z,101674.59
2019-04-21T13:33:21.031Z,101682.99
2019-04-21T13:35:55.263Z,101686.58
2019-04-21T13:38:35.154Z,101684.43
2019-04-21T13:41:29.651Z,101686.49
2019-04-21T13:43:47.511Z,101689.41
2019-04-21T13:46:27.175Z,101678.27
2019-04-21T13:49:05.243Z,101686.40
2019-04-21T13:51:41.633Z,101680.27
2019-04-21T13:54:14.033Z,101683.06
2019-04-21T13:56:47.998Z,101683.74
2019-04-21T13:59:22.484Z,101694.52
2019-04-21T14:01:56.761Z,101684.02
2019-04-21T14:04:29.930Z,101692.02
2019-04-21T14:07:02.505Z,101695.55
2019-04-21T14:09:43.899Z,101694.05
2019-04-21T14:12:09.679Z,101688.66
2019-04-21T14:14:42.042Z,101683.67
2019-04-21T14:17:15.141Z,101688.81
2019-04-21T14:19:49.262Z,101683.41
2019-04-21T14:22:24.357Z,101685.70
2019-04-21T14:25:01.821Z,101681.95
2019-04-21T14:27:36.521Z,101684.50
2019-04-21T14:30:10.492Z,101682.70
2019-04-21T14:33:02.326Z,101687.50
2019-04-21T14:35:36.715Z,101681.28
2019-04-21T14:38:10.837Z,101680.36
2019-04-21T14:40:44.146Z,101668.98
2019-04-21T14:43:16.566Z,101673.47
2019-04-21T14:46:06.441Z,101674.05
2019-04-21T14:48:57.235Z,101675.30
2019-04-21T14:51:38.967Z,101686.89
2019-04-21T14:54:12.449Z,101677.23
2019-04-21T14:56:44.962Z,101687.52
2019-04-21T14:59:17.273Z,101678.58
2019-04-21T15:01:50.049Z,101677.64
2019-04-21T15:04:22.879Z,101678.14
2019-04-21T15:06:55.521Z,101677.84
2019-04-21T15:09:27.189Z,101674.37
2019-04-21T15:12:00.195Z,101675.17
2019-04-21T15:14:33.941Z,101679.60
2019-04-21T15:17:05.525Z,101675.58
2019-04-21T15:19:38.407Z,101669.45
2019-04-21T15:22:12.332Z,101672.62
2019-04-21T15:24:44.510Z,101673.72
2019-04-21T15:27:16.859Z,101672.67
2019-04-21T15:29:51.065Z,101671.30
2019-04-21T15:32:22.743Z,101669.46
2019-04-21T15:34:56.350Z,101668.91
2019-04-21T15:37:29.133Z,101670.75
2019-04-21T15:40:18.127Z,101667.58
2019-04-21T15:42:42.192Z,101668.56
2019-04-21T15:45:14.604Z,101666.72
2019-04-21T15:47:47.499Z,101670.63
2019-04-21T15:50:20.184Z,101672.27
2019-04-21T15:52:53.842Z,101668.30
2019-04-21T15:55:44.515Z,101667.72
2019-04-21T15:58:22.776Z,101672.73
2019-04-21T16:00:56.431Z,101668.87
2019-04-21T16:03:31.118Z,101673.30
2019-04-21T16:06:03.284Z,101661.36
2019-04-21T16:08:35.240Z,101669.78
2019-04-21T16:11:11.092Z,101672.08
2019-04-21T16:13:41.725Z,101673.44
2019-04-21T16:16:14.661Z,101669.62
2019-04-21T16:18:46.262Z,101675.31
2019-04-21T16:21:18.074Z,101678.00
2019-04-21T16:23:50.765Z,101681.45
2019-04-21T16:26:22.573Z,101690.45
2019-04-21T16:28:55.279Z,101690.32
2019-04-21T16:31:27.904Z,101691.30
2019-04-21T16:34:00.935Z,101690.81
2019-04-21T16:36:33.874Z,101691.02
2019-04-21T16:39:07.339Z,101701.34
2019-04-21T16:41:40.384Z,101700.80
2019-04-21T16:44:13.405Z,101703.34
2019-04-21T16:46:45.454Z,101701.41
2019-04-21T16:49:17.881Z,101703.38
2019-04-21T16:52:12.190Z,101698.78
2019-04-21T16:54:47.830Z,101702.00
2019-04-21T16:57:39.815Z,101702.77
2019-04-21T17:00:26.418Z,101702.22
2019-04-21T17:02:48.059Z,101702.67
2019-04-21T17:05:30.049Z,101702.92
2019-04-21T17:08:03.952Z,101709.27
2019-04-21T17:10:36.057Z,101705.80
2019-04-21T17:13:09.887Z,101708.48
2019-04-21T17:15:53.152Z,101711.14
2019-04-21T17:18:33.115Z,101716.17
2019-04-21T17:20:55.389Z,101718.03
2019-04-21T17:23:22.226Z,101719.38
2019-04-21T17:25:55.190Z,101724.30
2019-04-21T17:28:27.843Z,101727.49
2019-04-21T17:31:00.111Z,101732.66
2019-04-21T17:33:33.863Z,101737.81
2019-04-21T17:36:07.182Z,101738.95
2019-04-21T17:38:39.717Z,101737.90
2019-04-21T17:41:25.109Z,101736.56
2019-04-21T17:43:46.003Z,101742.51
2019-04-21T17:46:22.956Z,101741.93
2019-04-21T17:48:50.849Z,101742.55
2019-04-21T17:51:25.643Z,101739.28
2019-04-21T17:54:13.669Z,101742.34
2019-04-21T17:57:16.288Z,101743.19
2019-04-21T17:59:45.134Z,101740.31
2019-04-21T18:02:05.151Z,101749.19
2019-04-21T18:04:43.177Z,101749.22
2019-04-21T18:07:21.533Z,101745.09
2019-04-21T18:12:34.886Z,101744.63
2019-04-21T18:14:59.838Z,101743.64
2019-04-21T18:17:24.666Z,101741.70
2019-04-21T18:19:57.278Z,101745.78
2019-04-21T18:22:39.536Z,101742.15
2019-04-21T18:25:12.472Z,101746.73
2019-04-21T18:27:43.132Z,101748.20
2019-04-21T18:30:52.358Z,101747.58
2019-04-21T18:33:29.928Z,101752.28
2019-04-21T18:36:02.892Z,101752.76
2019-04-21T18:39:00.068Z,101747.02
2019-04-21T18:41:19.618Z,101751.87
2019-04-21T18:47:07.368Z,101756.74
2019-04-21T18:49:41.827Z,101751.50
2019-04-21T18:52:22.519Z,101758.24
2019-04-21T18:55:02.889Z,101756.35
2019-04-21T18:57:30.633Z,101756.58
2019-04-21T18:59:55.345Z,101759.59
2019-04-21T19:02:31.723Z,101763.31
2019-04-21T19:05:07.858Z,101759.54
2019-04-21T19:07:55.802Z,101756.34
2019-04-21T19:10:35.969Z,101757.80
2019-04-21T19:15:33.845Z,101753.89
2019-04-21T19:20:44.808Z,101758.75
2019-04-21T19:23:26.989Z,101759.44
2019-04-21T19:26:03.723Z,101756.64
2019-04-21T19:28:27.056Z,101755.88
2019-04-21T19:31:04.945Z,101753.60
2019-04-21T19:33:24.107Z,101755.22
2019-04-21T19:35:47.729Z,101757.16
2019-04-21T19:38:30.194Z,101758.80
2019-04-21T19:41:10.395Z,101762.28
2019-04-21T19:43:49.187Z,101754.98
2019-04-21T19:46:19.361Z,101763.88
2019-04-21T19:49:01.190Z,101763.80
2019-04-21T19:51:23.208Z,101761.52
2019-04-21T19:53:53.860Z,101760.23
2019-04-21T19:56:16.188Z,101768.09
2019-04-21T19:58:50.780Z,101759.37
2019-04-21T20:01:23.552Z,101765.34
2019-04-21T20:03:59.108Z,101765.00
2019-04-21T20:06:45.518Z,101768.52
2019-04-21T20:09:22.010Z,101772.52
2019-04-21T20:11:55.495Z,101771.78
2019-04-21T20:16:59.258Z,101771.09
2019-04-21T20:19:22.927Z,101777.31
2019-04-21T20:21:56.937Z,101771.73
2019-04-21T20:24:32.027Z,101778.95
2019-04-21T20:27:11.404Z,101769.34
2019-04-21T20:29:57.992Z,101779.25
2019-04-21T20:32:45.313Z,101755.95
2019-04-21T20:35:12.479Z,101783.27
2019-04-21T20:37:31.692Z,101774.46
2019-04-21T20:39:58.393Z,101785.02
2019-04-21T20:42:38.999Z,101778.75
2019-04-21T20:45:32.003Z,101789.39
2019-04-21T20:47:39.421Z,101787.45
2019-04-21T20:50:19.687Z,101783.46
2019-04-21T20:53:00.020Z,101783.46
2019-04-21T20:55:22.407Z,101780.30
2019-04-21T20:57:59.706Z,101783.81
2019-04-21T21:00:45.694Z,101788.40
2019-04-21T21:03:12.024Z,101786.86
2019-04-21T21:05:42.473Z,101789.27
2019-04-21T21:08:29.514Z,101795.67
2019-04-21T21:10:57.510Z,101796.31
2019-04-21T21:13:41.329Z,101795.19
2019-04-21T21:16:15.117Z,101788.80
2019-04-21T21:19:15.774Z,101795.66
2019-04-21T21:21:11.586Z,101801.67
2019-04-21T21:23:47.780Z,101795.56
2019-04-21T21:26:25.632Z,101787.62
2019-04-21T21:28:51.421Z,101794.06
2019-04-21T21:31:35.723Z,101795.09
2019-04-21T21:34:21.178Z,101794.05
2019-04-21T21:36:36.471Z,101791.76
2019-04-21T21:39:09.617Z,101790.72
2019-04-21T21:41:31.796Z,101793.09
2019-04-21T21:44:14.848Z,101788.39
2019-04-21T21:46:53.833Z,101785.82
2019-04-21T21:49:36.971Z,101790.03
2019-04-21T21:51:59.274Z,101796.70
2019-04-21T21:54:25.586Z,101798.83
2019-04-21T21:56:58.557Z,101797.52
2019-04-21T21:59:33.664Z,101796.89
2019-04-21T22:02:05.121Z,101785.33
2019-04-21T22:04:38.944Z,101796.52
2019-04-21T22:07:15.152Z,101795.86
2019-04-21T22:09:44.309Z,101799.30
2019-04-21T22:12:18.175Z,101791.72
2019-04-21T22:14:54.090Z,101797.39
2019-04-21T22:17:41.698Z,101793.80
2019-04-21T22:20:13.407Z,101797.91
2019-04-21T22:22:42.560Z,101801.42
2019-04-21T22:25:12.716Z,101801.62
2019-04-21T22:27:41.052Z,101802.67
2019-04-21T22:30:14.718Z,101803.14
2019-04-21T22:32:53.684Z,101801.07
2019-04-21T22:35:27.152Z,101807.13
2019-04-21T22:38:10.816Z,101797.83
2019-04-21T22:40:44.048Z,101807.13
2019-04-21T22:43:15.904Z,101802.40
2019-04-21T22:45:35.578Z,101792.91
2019-04-21T22:48:15.559Z,101801.94
2019-04-21T22:50:42.354Z,101798.26
2019-04-21T22:53:17.204Z,101801.48
2019-04-21T22:55:49.512Z,101798.08
2019-04-21T22:58:28.294Z,101791.36
2019-04-21T23:00:57.123Z,101792.38
2019-04-21T23:03:28.888Z,101794.56
2019-04-21T23:06:11.059Z,101794.87
2019-04-21T23:08:40.062Z,101792.76
2019-04-21T23:11:12.420Z,101800.17
2019-04-21T23:13:51.669Z,101799.97
2019-04-21T23:16:21.470Z,101801.29
2019-04-21T23:19:14.331Z,101797.43
2019-04-21T23:21:48.939Z,101800.55
2019-04-21T23:24:17.436Z,101801.67
2019-04-21T23:26:48.658Z,101810.20
2019-04-21T23:29:25.730Z,101805.66
2019-04-21T23:31:55.110Z,101800.44
2019-04-21T23:34:18.371Z,101806.59
2019-04-21T23:36:53.056Z,101810.67
2019-04-21T23:39:23.368Z,101810.67
2019-04-21T23:41:55.418Z,101811.22
2019-04-21T23:44:28.169Z,101814.27
2019-04-21T23:47:03.411Z,101816.42
2019-04-21T23:49:43.007Z,101816.24
2019-04-21T23:52:11.921Z,101819.25
2019-04-21T23:54:41.070Z,101815.17
2019-04-21T23:57:20.845Z,101816.24
2019-04-21T23:59:50.402Z,101819.44
